sensor_id;sensor_type;location;lat;lon;timestamp;pressure;altitude;pressure_sealevel;temperature;humidity
55466;BME280;41329;41.594;23.810;2023-01-27T00:01:00;94327.84;;;3.14;77.57
55466;BME280;41329;41.594;23.810;2023-01-27T00:03:26;94341.44;;;3.26;77.54
55466;BME280;41329;41.594;23.810;2023-01-27T00:05:51;94339.69;;;3.33;77.49
55466;BME280;41329;41.594;23.810;2023-01-27T00:08:17;94312.84;;;3.23;77.35
55466;BME280;41329;41.594;23.810;2023-01-27T00:10:43;94314.13;;;3.26;77.28
55466;BME280;41329;41.594;23.810;2023-01-27T00:13:11;94325.31;;;3.36;77.46
55466;BME280;41329;41.594;23.810;2023-01-27T00:15:52;94334.75;;;3.39;77.59
55466;BME280;41329;41.594;23.810;2023-01-27T00:18:18;94331.13;;;3.35;77.60
55466;BME280;41329;41.594;23.810;2023-01-27T00:20:43;94335.81;;;3.34;77.83
55466;BME280;41329;41.594;23.810;2023-01-27T00:23:28;94329.66;;;3.37;77.79
55466;BME280;41329;41.594;23.810;2023-01-27T00:26:14;94336.00;;;3.41;77.81
55466;BME280;41329;41.594;23.810;2023-01-27T00:28:40;94320.75;;;3.40;77.67
55466;BME280;41329;41.594;23.810;2023-01-27T00:31:08;94324.06;;;3.34;77.78
55466;BME280;41329;41.594;23.810;2023-01-27T00:33:52;94315.78;;;3.30;77.69
55466;BME280;41329;41.594;23.810;2023-01-27T00:36:20;94318.09;;;3.28;77.81
55466;BME280;41329;41.594;23.810;2023-01-27T00:38:46;94322.81;;;3.31;77.95
55466;BME280;41329;41.594;23.810;2023-01-27T00:41:12;94345.09;;;3.45;77.80
55466;BME280;41329;41.594;23.810;2023-01-27T00:43:51;94276.53;;;3.07;77.59
55466;BME280;41329;41.594;23.810;2023-01-27T00:46:18;94340.06;;;3.47;77.74
55466;BME280;41329;41.594;23.810;2023-01-27T00:48:44;94346.41;;;3.51;77.76
55466;BME280;41329;41.594;23.810;2023-01-27T00:51:10;94340.94;;;3.51;77.36
55466;BME280;41329;41.594;23.810;2023-01-27T00:53:38;94338.66;;;3.53;77.37
55466;BME280;41329;41.594;23.810;2023-01-27T00:56:04;94314.91;;;3.42;77.31
55466;BME280;41329;41.594;23.810;2023-01-27T00:58:30;94305.31;;;3.48;77.31
55466;BME280;41329;41.594;23.810;2023-01-27T01:00:57;94284.41;;;3.40;77.45
55466;BME280;41329;41.594;23.810;2023-01-27T01:03:27;94288.09;;;3.47;77.37
55466;BME280;41329;41.594;23.810;2023-01-27T01:05:59;94291.63;;;3.48;77.60
55466;BME280;41329;41.594;23.810;2023-01-27T01:08:25;94297.00;;;3.44;77.89
55466;BME280;41329;41.594;23.810;2023-01-27T01:10:51;94289.25;;;3.46;77.95
55466;BME280;41329;41.594;23.810;2023-01-27T01:13:17;94277.34;;;3.39;77.82
55466;BME280;41329;41.594;23.810;2023-01-27T01:15:43;94280.44;;;3.37;77.79
55466;BME280;41329;41.594;23.810;2023-01-27T01:18:09;94285.97;;;3.25;77.73
55466;BME280;41329;41.594;23.810;2023-01-27T01:20:40;94291.78;;;3.24;77.89
55466;BME280;41329;41.594;23.810;2023-01-27T01:23:06;94286.25;;;3.20;77.82
55466;BME280;41329;41.594;23.810;2023-01-27T01:25:33;94291.72;;;3.20;77.72
55466;BME280;41329;41.594;23.810;2023-01-27T01:27:59;94230.41;;;2.90;77.84
55466;BME280;41329;41.594;23.810;2023-01-27T01:30:25;94313.72;;;3.27;77.84
55466;BME280;41329;41.594;23.810;2023-01-27T01:32:53;94316.94;;;3.29;77.88
55466;BME280;41329;41.594;23.810;2023-01-27T01:35:19;94318.16;;;3.32;77.56
55466;BME280;41329;41.594;23.810;2023-01-27T01:37:45;94318.59;;;3.34;77.84
55466;BME280;41329;41.594;23.810;2023-01-27T01:40:11;94302.66;;;3.36;77.79
55466;BME280;41329;41.594;23.810;2023-01-27T01:42:53;94292.41;;;3.33;77.64
55466;BME280;41329;41.594;23.810;2023-01-27T01:45:42;94285.09;;;3.37;77.69
55466;BME280;41329;41.594;23.810;2023-01-27T01:48:20;94274.34;;;3.28;77.78
55466;BME280;41329;41.594;23.810;2023-01-27T01:53:28;94285.56;;;3.39;77.87
55466;BME280;41329;41.594;23.810;2023-01-27T01:56:02;94277.97;;;3.32;78.11
55466;BME280;41329;41.594;23.810;2023-01-27T01:58:29;94252.22;;;3.18;77.91
55466;BME280;41329;41.594;23.810;2023-01-27T02:00:55;94267.03;;;3.32;77.76
55466;BME280;41329;41.594;23.810;2023-01-27T02:03:22;94243.47;;;3.28;78.01
55466;BME280;41329;41.594;23.810;2023-01-27T02:05:51;94241.19;;;3.30;77.97
55466;BME280;41329;41.594;23.810;2023-01-27T02:08:26;94239.31;;;3.34;77.85
55466;BME280;41329;41.594;23.810;2023-01-27T02:10:53;94238.97;;;3.35;77.86
55466;BME280;41329;41.594;23.810;2023-01-27T02:13:20;94249.66;;;3.40;77.98
55466;BME280;41329;41.594;23.810;2023-01-27T02:15:46;94235.34;;;3.31;77.94
55466;BME280;41329;41.594;23.810;2023-01-27T02:18:11;94218.44;;;3.26;77.91
55466;BME280;41329;41.594;23.810;2023-01-27T02:20:58;94236.16;;;3.47;77.82
55466;BME280;41329;41.594;23.810;2023-01-27T02:26:11;94220.56;;;3.48;77.60
55466;BME280;41329;41.594;23.810;2023-01-27T02:28:39;94212.00;;;3.49;77.69
55466;BME280;41329;41.594;23.810;2023-01-27T02:31:05;94199.44;;;3.48;77.53
55466;BME280;41329;41.594;23.810;2023-01-27T02:33:31;94191.19;;;3.45;77.33
55466;BME280;41329;41.594;23.810;2023-01-27T02:36:06;94201.06;;;3.49;77.58
55466;BME280;41329;41.594;23.810;2023-01-27T02:38:35;94196.72;;;3.48;77.48
55466;BME280;41329;41.594;23.810;2023-01-27T02:41:22;94186.94;;;3.47;77.62
55466;BME280;41329;41.594;23.810;2023-01-27T02:43:50;94161.66;;;3.35;77.61
55466;BME280;41329;41.594;23.810;2023-01-27T02:46:16;94168.50;;;3.44;77.37
55466;BME280;41329;41.594;23.810;2023-01-27T02:48:41;94156.72;;;3.40;77.40
55466;BME280;41329;41.594;23.810;2023-01-27T02:51:07;94153.88;;;3.37;77.37
55466;BME280;41329;41.594;23.810;2023-01-27T02:53:33;94179.53;;;3.48;77.48
55466;BME280;41329;41.594;23.810;2023-01-27T02:55:58;94170.97;;;3.34;77.78
55466;BME280;41329;41.594;23.810;2023-01-27T02:58:24;94183.19;;;3.36;77.45
55466;BME280;41329;41.594;23.810;2023-01-27T03:00:49;94172.66;;;3.38;77.80
55466;BME280;41329;41.594;23.810;2023-01-27T03:03:15;94156.72;;;3.40;77.68
55466;BME280;41329;41.594;23.810;2023-01-27T03:05:40;94143.91;;;3.44;77.71
55466;BME280;41329;41.594;23.810;2023-01-27T03:08:06;94150.88;;;3.42;77.73
55466;BME280;41329;41.594;23.810;2023-01-27T03:10:32;94152.09;;;3.44;77.64
55466;BME280;41329;41.594;23.810;2023-01-27T03:12:57;94136.31;;;3.38;77.81
55466;BME280;41329;41.594;23.810;2023-01-27T03:15:23;94140.91;;;3.49;77.77
55466;BME280;41329;41.594;23.810;2023-01-27T03:18:08;94149.75;;;3.27;77.77
55466;BME280;41329;41.594;23.810;2023-01-27T03:20:43;94151.97;;;3.22;78.49
55466;BME280;41329;41.594;23.810;2023-01-27T03:23:09;94132.84;;;3.22;78.37
55466;BME280;41329;41.594;23.810;2023-01-27T03:25:34;94153.81;;;3.33;78.50
55466;BME280;41329;41.594;23.810;2023-01-27T03:28:00;94183.00;;;3.29;78.53
55466;BME280;41329;41.594;23.810;2023-01-27T03:30:27;94184.75;;;3.06;79.02
55466;BME280;41329;41.594;23.810;2023-01-27T03:32:53;94176.47;;;2.87;79.63
55466;BME280;41329;41.594;23.810;2023-01-27T03:35:18;94189.75;;;2.73;80.12
55466;BME280;41329;41.594;23.810;2023-01-27T03:37:47;94184.75;;;2.48;81.06
55466;BME280;41329;41.594;23.810;2023-01-27T03:40:32;94189.28;;;2.56;81.38
55466;BME280;41329;41.594;23.810;2023-01-27T03:43:16;94202.63;;;2.45;81.45
55466;BME280;41329;41.594;23.810;2023-01-27T03:46:00;94209.34;;;2.20;82.88
55466;BME280;41329;41.594;23.810;2023-01-27T03:48:47;94215.03;;;2.15;83.01
55466;BME280;41329;41.594;23.810;2023-01-27T03:51:15;94208.34;;;2.13;83.89
55466;BME280;41329;41.594;23.810;2023-01-27T03:53:40;94199.75;;;2.26;83.34
55466;BME280;41329;41.594;23.810;2023-01-27T03:56:08;94188.78;;;2.38;82.87
55466;BME280;41329;41.594;23.810;2023-01-27T03:58:35;94201.88;;;2.60;82.42
55466;BME280;41329;41.594;23.810;2023-01-27T04:01:05;94204.53;;;2.72;82.07
55466;BME280;41329;41.594;23.810;2023-01-27T04:03:33;94197.84;;;2.70;81.74
55466;BME280;41329;41.594;23.810;2023-01-27T04:06:20;94211.97;;;2.87;81.23
55466;BME280;41329;41.594;23.810;2023-01-27T04:09:05;94211.09;;;2.99;80.73
55466;BME280;41329;41.594;23.810;2023-01-27T04:11:31;94206.19;;;3.04;80.61
55466;BME280;41329;41.594;23.810;2023-01-27T04:14:16;94201.59;;;3.08;80.49
55466;BME280;41329;41.594;23.810;2023-01-27T04:16:42;94195.16;;;3.16;80.14
55466;BME280;41329;41.594;23.810;2023-01-27T04:19:08;94196.06;;;3.20;79.85
55466;BME280;41329;41.594;23.810;2023-01-27T04:21:34;94187.66;;;3.13;79.67
55466;BME280;41329;41.594;23.810;2023-01-27T04:24:00;94201.50;;;3.20;79.41
55466;BME280;41329;41.594;23.810;2023-01-27T04:26:27;94198.59;;;3.13;79.35
55466;BME280;41329;41.594;23.810;2023-01-27T04:29:02;94219.69;;;3.28;79.00
55466;BME280;41329;41.594;23.810;2023-01-27T04:31:28;94202.47;;;3.28;78.93
55466;BME280;41329;41.594;23.810;2023-01-27T04:33:53;94203.28;;;3.28;78.81
55466;BME280;41329;41.594;23.810;2023-01-27T04:36:19;94210.41;;;3.33;78.54
55466;BME280;41329;41.594;23.810;2023-01-27T04:38:44;94218.25;;;3.34;78.34
55466;BME280;41329;41.594;23.810;2023-01-27T04:41:10;94219.50;;;3.37;78.37
55466;BME280;41329;41.594;23.810;2023-01-27T04:43:36;94205.75;;;3.33;78.45
55466;BME280;41329;41.594;23.810;2023-01-27T04:46:01;94200.19;;;3.30;78.44
55466;BME280;41329;41.594;23.810;2023-01-27T04:48:27;94207.84;;;3.40;78.29
55466;BME280;41329;41.594;23.810;2023-01-27T04:50:52;94210.94;;;3.38;78.28
55466;BME280;41329;41.594;23.810;2023-01-27T04:53:18;94209.72;;;3.36;78.23
55466;BME280;41329;41.594;23.810;2023-01-27T04:55:46;94210.59;;;3.40;78.22
55466;BME280;41329;41.594;23.810;2023-01-27T04:58:13;94216.13;;;3.43;78.20
55466;BME280;41329;41.594;23.810;2023-01-27T05:00:38;94201.16;;;3.37;78.28
55466;BME280;41329;41.594;23.810;2023-01-27T05:03:04;94206.78;;;3.44;78.12
55466;BME280;41329;41.594;23.810;2023-01-27T05:05:31;94217.47;;;3.49;78.20
55466;BME280;41329;41.594;23.810;2023-01-27T05:08:01;94207.22;;;3.46;78.15
55466;BME280;41329;41.594;23.810;2023-01-27T05:10:27;94217.53;;;3.53;77.98
55466;BME280;41329;41.594;23.810;2023-01-27T05:12:52;94200.19;;;3.45;78.29
55466;BME280;41329;41.594;23.810;2023-01-27T05:15:18;94212.41;;;3.51;78.06
55466;BME280;41329;41.594;23.810;2023-01-27T05:17:43;94212.59;;;3.58;78.12
55466;BME280;41329;41.594;23.810;2023-01-27T05:20:09;94214.88;;;3.56;78.11
55466;BME280;41329;41.594;23.810;2023-01-27T05:22:35;94218.41;;;3.57;77.85
55466;BME280;41329;41.594;23.810;2023-01-27T05:25:00;94227.44;;;3.57;77.74
55466;BME280;41329;41.594;23.810;2023-01-27T05:27:25;94226.97;;;3.55;77.85
55466;BME280;41329;41.594;23.810;2023-01-27T05:29:51;94234.91;;;3.60;77.81
55466;BME280;41329;41.594;23.810;2023-01-27T05:32:16;94234.91;;;3.60;77.71
55466;BME280;41329;41.594;23.810;2023-01-27T05:34:42;94227.50;;;3.61;77.93
55466;BME280;41329;41.594;23.810;2023-01-27T05:37:07;94220.88;;;3.62;77.68
55466;BME280;41329;41.594;23.810;2023-01-27T05:39:33;94220.69;;;3.55;77.71
55466;BME280;41329;41.594;23.810;2023-01-27T05:41:58;94228.66;;;3.60;77.55
55466;BME280;41329;41.594;23.810;2023-01-27T05:44:24;94237.63;;;3.60;77.58
55466;BME280;41329;41.594;23.810;2023-01-27T05:46:49;94239.66;;;3.63;77.65
55466;BME280;41329;41.594;23.810;2023-01-27T05:49:14;94225.75;;;3.53;77.79
55466;BME280;41329;41.594;23.810;2023-01-27T05:51:40;94219.47;;;3.52;77.64
55466;BME280;41329;41.594;23.810;2023-01-27T05:54:06;94236.06;;;3.59;77.64
55466;BME280;41329;41.594;23.810;2023-01-27T05:56:32;94224.16;;;3.52;77.73
55466;BME280;41329;41.594;23.810;2023-01-27T05:58:58;94247.00;;;3.59;77.67
55466;BME280;41329;41.594;23.810;2023-01-27T06:01:28;94247.81;;;3.60;77.82
55466;BME280;41329;41.594;23.810;2023-01-27T06:03:54;94237.63;;;3.60;77.79
55466;BME280;41329;41.594;23.810;2023-01-27T06:06:22;94221.78;;;3.50;77.77
55466;BME280;41329;41.594;23.810;2023-01-27T06:08:48;94224.59;;;3.54;77.83
55466;BME280;41329;41.594;23.810;2023-01-27T06:11:15;94240.72;;;3.59;77.63
55466;BME280;41329;41.594;23.810;2023-01-27T06:13:42;94222.13;;;3.49;77.73
55466;BME280;41329;41.594;23.810;2023-01-27T06:16:10;94229.78;;;3.59;77.73
55466;BME280;41329;41.594;23.810;2023-01-27T06:18:36;94221.97;;;3.57;77.88
55466;BME280;41329;41.594;23.810;2023-01-27T06:21:04;94210.16;;;3.53;78.13
55466;BME280;41329;41.594;23.810;2023-01-27T06:23:30;94223.63;;;3.62;78.04
55466;BME280;41329;41.594;23.810;2023-01-27T06:26:00;94195.16;;;3.32;78.17
55466;BME280;41329;41.594;23.810;2023-01-27T06:28:26;94237.56;;;3.57;78.22
55466;BME280;41329;41.594;23.810;2023-01-27T06:30:51;94236.13;;;3.63;78.19
55466;BME280;41329;41.594;23.810;2023-01-27T06:33:17;94229.53;;;3.64;78.00
55466;BME280;41329;41.594;23.810;2023-01-27T06:35:42;94222.84;;;3.61;78.12
55466;BME280;41329;41.594;23.810;2023-01-27T06:38:10;94224.22;;;3.71;78.26
55466;BME280;41329;41.594;23.810;2023-01-27T06:40:37;94229.06;;;3.77;78.17
55466;BME280;41329;41.594;23.810;2023-01-27T06:43:03;94187.28;;;3.61;78.06
55466;BME280;41329;41.594;23.810;2023-01-27T06:45:29;94193.16;;;3.79;78.21
55466;BME280;41329;41.594;23.810;2023-01-27T06:47:59;94196.22;;;3.77;78.16
55466;BME280;41329;41.594;23.810;2023-01-27T06:50:27;94198.25;;;3.80;78.15
55466;BME280;41329;41.594;23.810;2023-01-27T06:52:59;94200.13;;;3.76;78.19
55466;BME280;41329;41.594;23.810;2023-01-27T06:55:25;94206.19;;;3.85;78.50
55466;BME280;41329;41.594;23.810;2023-01-27T06:57:50;94186.03;;;3.74;78.50
55466;BME280;41329;41.594;23.810;2023-01-27T07:00:16;94220.41;;;3.91;78.46
55466;BME280;41329;41.594;23.810;2023-01-27T07:02:43;94225.06;;;3.90;78.43
55466;BME280;41329;41.594;23.810;2023-01-27T07:05:09;94218.41;;;3.72;78.51
55466;BME280;41329;41.594;23.810;2023-01-27T07:07:34;94222.47;;;3.78;78.43
55466;BME280;41329;41.594;23.810;2023-01-27T07:10:00;94217.00;;;3.78;78.58
55466;BME280;41329;41.594;23.810;2023-01-27T07:12:25;94222.47;;;3.78;78.35
55466;BME280;41329;41.594;23.810;2023-01-27T07:14:51;94211.41;;;3.75;78.45
55466;BME280;41329;41.594;23.810;2023-01-27T07:17:16;94201.00;;;3.80;78.43
55466;BME280;41329;41.594;23.810;2023-01-27T07:19:42;94203.44;;;3.85;78.48
55466;BME280;41329;41.594;23.810;2023-01-27T07:22:07;94197.28;;;3.88;78.48
55466;BME280;41329;41.594;23.810;2023-01-27T07:24:33;94164.31;;;3.66;78.55
55466;BME280;41329;41.594;23.810;2023-01-27T07:26:58;94205.13;;;3.90;78.67
55466;BME280;41329;41.594;23.810;2023-01-27T07:29:24;94203.91;;;3.87;78.55
55466;BME280;41329;41.594;23.810;2023-01-27T07:31:49;94206.00;;;3.94;78.23
55466;BME280;41329;41.594;23.810;2023-01-27T07:34:15;94155.19;;;3.58;78.36
55466;BME280;41329;41.594;23.810;2023-01-27T07:36:40;94205.91;;;3.90;78.41
55466;BME280;41329;41.594;23.810;2023-01-27T07:39:06;94195.09;;;3.63;78.80
55466;BME280;41329;41.594;23.810;2023-01-27T07:41:31;94198.94;;;3.58;78.90
55466;BME280;41329;41.594;23.810;2023-01-27T07:43:56;94211.91;;;3.46;79.32
55466;BME280;41329;41.594;23.810;2023-01-27T07:46:22;94222.22;;;3.37;79.72
55466;BME280;41329;41.594;23.810;2023-01-27T07:48:47;94221.59;;;3.28;80.20
55466;BME280;41329;41.594;23.810;2023-01-27T07:51:14;94194.56;;;3.07;80.66
55466;BME280;41329;41.594;23.810;2023-01-27T07:53:40;94191.63;;;3.00;81.11
55466;BME280;41329;41.594;23.810;2023-01-27T07:56:06;94192.25;;;3.09;81.51
55466;BME280;41329;41.594;23.810;2023-01-27T07:58:40;94211.84;;;3.27;81.50
55466;BME280;41329;41.594;23.810;2023-01-27T08:01:07;94222.75;;;3.42;81.30
55466;BME280;41329;41.594;23.810;2023-01-27T08:03:33;94201.22;;;3.41;81.29
55466;BME280;41329;41.594;23.810;2023-01-27T08:06:03;94195.25;;;3.51;81.38
55466;BME280;41329;41.594;23.810;2023-01-27T08:08:29;94209.75;;;3.70;80.85
55466;BME280;41329;41.594;23.810;2023-01-27T08:10:59;94206.41;;;3.77;80.83
55466;BME280;41329;41.594;23.810;2023-01-27T08:13:24;94158.09;;;3.50;80.84
55466;BME280;41329;41.594;23.810;2023-01-27T08:15:55;94215.84;;;3.79;81.16
55466;BME280;41329;41.594;23.810;2023-01-27T08:18:21;94220.03;;;3.92;80.58
55466;BME280;41329;41.594;23.810;2023-01-27T08:20:46;94197.88;;;3.97;80.58
55466;BME280;41329;41.594;23.810;2023-01-27T08:23:11;94207.53;;;4.10;80.26
55466;BME280;41329;41.594;23.810;2023-01-27T08:25:37;94180.28;;;3.98;79.98
55466;BME280;41329;41.594;23.810;2023-01-27T08:28:02;94199.91;;;4.19;79.83
55466;BME280;41329;41.594;23.810;2023-01-27T08:30:28;94199.00;;;4.31;79.83
55466;BME280;41329;41.594;23.810;2023-01-27T08:32:53;94203.03;;;4.37;79.66
55466;BME280;41329;41.594;23.810;2023-01-27T08:35:19;94211.75;;;4.42;79.29
55466;BME280;41329;41.594;23.810;2023-01-27T08:37:46;94182.78;;;4.22;79.13
55466;BME280;41329;41.594;23.810;2023-01-27T08:40:12;94205.19;;;4.47;79.28
55466;BME280;41329;41.594;23.810;2023-01-27T08:42:38;94202.22;;;4.55;79.46
55466;BME280;41329;41.594;23.810;2023-01-27T08:45:04;94198.41;;;4.60;79.60
55466;BME280;41329;41.594;23.810;2023-01-27T08:47:29;94195.75;;;4.63;79.30
55466;BME280;41329;41.594;23.810;2023-01-27T08:49:55;94163.69;;;4.45;79.20
55466;BME280;41329;41.594;23.810;2023-01-27T08:52:20;94207.31;;;4.76;78.98
55466;BME280;41329;41.594;23.810;2023-01-27T08:54:47;94162.88;;;4.44;78.82
55466;BME280;41329;41.594;23.810;2023-01-27T08:57:12;94214.97;;;4.67;78.82
55466;BME280;41329;41.594;23.810;2023-01-27T08:59:38;94199.03;;;4.53;78.81
55466;BME280;41329;41.594;23.810;2023-01-27T09:02:03;94205.69;;;4.71;78.90
55466;BME280;41329;41.594;23.810;2023-01-27T09:04:29;94206.66;;;4.82;78.80
55466;BME280;41329;41.594;23.810;2023-01-27T09:06:55;94200.31;;;4.78;78.78
55466;BME280;41329;41.594;23.810;2023-01-27T09:09:21;94188.28;;;4.83;78.69
55466;BME280;41329;41.594;23.810;2023-01-27T09:11:46;94173.06;;;4.85;78.45
55466;BME280;41329;41.594;23.810;2023-01-27T09:14:12;94183.16;;;5.00;78.37
55466;BME280;41329;41.594;23.810;2023-01-27T09:16:38;94183.25;;;5.07;78.21
55466;BME280;41329;41.594;23.810;2023-01-27T09:19:03;94181.81;;;5.13;78.13
55466;BME280;41329;41.594;23.810;2023-01-27T09:21:29;94178.78;;;4.99;77.44
55466;BME280;41329;41.594;23.810;2023-01-27T09:23:55;94192.59;;;5.03;76.82
55466;BME280;41329;41.594;23.810;2023-01-27T09:26:21;94172.75;;;4.90;76.22
55466;BME280;41329;41.594;23.810;2023-01-27T09:28:46;94179.25;;;5.01;76.75
55466;BME280;41329;41.594;23.810;2023-01-27T09:31:12;94171.78;;;5.02;77.05
55466;BME280;41329;41.594;23.810;2023-01-27T09:33:37;94140.81;;;4.98;77.47
55466;BME280;41329;41.594;23.810;2023-01-27T09:36:10;94159.13;;;5.16;77.67
55466;BME280;41329;41.594;23.810;2023-01-27T09:38:45;94147.78;;;5.18;77.70
55466;BME280;41329;41.594;23.810;2023-01-27T09:55:08;94162.72;;;5.20;76.93
55466;BME280;41329;41.594;23.810;2023-01-27T09:57:40;94142.25;;;5.14;76.58
55466;BME280;41329;41.594;23.810;2023-01-27T10:11:07;94135.91;;;5.33;77.19
55466;BME280;41329;41.594;23.810;2023-01-27T10:16:40;94114.09;;;5.40;76.79
55466;BME280;41329;41.594;23.810;2023-01-27T10:19:35;94127.66;;;5.55;77.08
55466;BME280;41329;41.594;23.810;2023-01-27T10:22:41;94128.13;;;5.61;77.18
55466;BME280;41329;41.594;23.810;2023-01-27T10:25:30;94121.13;;;5.63;76.70
55466;BME280;41329;41.594;23.810;2023-01-27T10:28:11;94115.09;;;5.54;76.21
55466;BME280;41329;41.594;23.810;2023-01-27T10:30:45;94112.78;;;5.56;76.17
55466;BME280;41329;41.594;23.810;2023-01-27T10:33:20;94105.78;;;5.62;76.59
55466;BME280;41329;41.594;23.810;2023-01-27T10:35:51;94105.91;;;5.69;76.69
55466;BME280;41329;41.594;23.810;2023-01-27T10:38:51;94106.72;;;5.70;75.78
55466;BME280;41329;41.594;23.810;2023-01-27T10:46:40;94064.66;;;5.36;75.65
55466;BME280;41329;41.594;23.810;2023-01-27T10:49:18;94082.63;;;5.60;76.20
55466;BME280;41329;41.594;23.810;2023-01-27T10:52:10;94105.25;;;5.79;76.25
55466;BME280;41329;41.594;23.810;2023-01-27T10:57:34;94093.88;;;5.77;75.06
55466;BME280;41329;41.594;23.810;2023-01-27T11:00:13;94095.91;;;5.80;75.15
55466;BME280;41329;41.594;23.810;2023-01-27T11:02:43;94099.91;;;5.86;75.17
55466;BME280;41329;41.594;23.810;2023-01-27T11:05:20;94075.47;;;5.78;75.41
55466;BME280;41329;41.594;23.810;2023-01-27T11:07:53;94089.88;;;5.97;75.54
55466;BME280;41329;41.594;23.810;2023-01-27T11:10:24;94091.47;;;6.02;75.47
55466;BME280;41329;41.594;23.810;2023-01-27T11:12:55;94073.88;;;6.03;75.56
55466;BME280;41329;41.594;23.810;2023-01-27T11:15:27;94071.13;;;6.03;75.19
55466;BME280;41329;41.594;23.810;2023-01-27T11:18:26;94089.66;;;6.13;74.80
55466;BME280;41329;41.594;23.810;2023-01-27T11:20:59;94086.94;;;6.16;74.89
55466;BME280;41329;41.594;23.810;2023-01-27T11:23:29;94075.97;;;6.16;74.79
55466;BME280;41329;41.594;23.810;2023-01-27T11:32:20;94067.09;;;6.26;74.05
55466;BME280;41329;41.594;23.810;2023-01-27T11:35:12;94060.75;;;6.22;74.17
55466;BME280;41329;41.594;23.810;2023-01-27T11:37:48;94059.69;;;6.30;74.52
55466;BME280;41329;41.594;23.810;2023-01-27T11:40:33;94060.50;;;6.34;74.59
55466;BME280;41329;41.594;23.810;2023-01-27T11:43:00;94055.78;;;6.35;74.22
55466;BME280;41329;41.594;23.810;2023-01-27T11:45:29;94057.00;;;6.37;74.57
55466;BME280;41329;41.594;23.810;2023-01-27T11:48:02;94006.84;;;6.07;74.60
55466;BME280;41329;41.594;23.810;2023-01-27T11:50:32;94055.88;;;6.42;74.31
55466;BME280;41329;41.594;23.810;2023-01-27T11:53:25;94050.41;;;6.45;74.17
55466;BME280;41329;41.594;23.810;2023-01-27T11:55:58;94039.31;;;6.35;73.65
55466;BME280;41329;41.594;23.810;2023-01-27T11:58:31;94026.25;;;6.25;73.96
55466;BME280;41329;41.594;23.810;2023-01-27T12:01:00;94038.06;;;6.29;74.03
55466;BME280;41329;41.594;23.810;2023-01-27T12:06:21;94038.31;;;6.13;73.25
55466;BME280;41329;41.594;23.810;2023-01-27T12:08:49;94030.44;;;6.12;73.89
55466;BME280;41329;41.594;23.810;2023-01-27T12:11:24;94039.94;;;6.21;73.63
55466;BME280;41329;41.594;23.810;2023-01-27T12:16:26;94036.94;;;6.33;73.71
55466;BME280;41329;41.594;23.810;2023-01-27T12:18:58;94031.44;;;6.33;73.74
55466;BME280;41329;41.594;23.810;2023-01-27T12:21:59;94032.22;;;6.30;73.63
55466;BME280;41329;41.594;23.810;2023-01-27T12:24:38;94027.16;;;6.36;73.66
55466;BME280;41329;41.594;23.810;2023-01-27T12:27:05;94027.16;;;6.36;73.57
55466;BME280;41329;41.594;23.810;2023-01-27T12:29:40;94021.66;;;6.36;73.74
55466;BME280;41329;41.594;23.810;2023-01-27T12:32:16;94027.25;;;6.46;74.19
55466;BME280;41329;41.594;23.810;2023-01-27T12:34:44;94029.25;;;6.49;74.06
55466;BME280;41329;41.594;23.810;2023-01-27T12:37:19;94024.38;;;6.32;74.40
55466;BME280;41329;41.594;23.810;2023-01-27T12:39:50;94018.59;;;6.41;74.43
55466;BME280;41329;41.594;23.810;2023-01-27T12:42:48;94017.88;;;6.47;74.10
55466;BME280;41329;41.594;23.810;2023-01-27T12:45:28;94010.63;;;6.32;74.11
55466;BME280;41329;41.594;23.810;2023-01-27T12:50:26;94000.13;;;6.41;73.94
55466;BME280;41329;41.594;23.810;2023-01-27T12:53:13;94016.75;;;6.19;73.74
55466;BME280;41329;41.594;23.810;2023-01-27T12:59:23;94007.25;;;6.09;74.81
55466;BME280;41329;41.594;23.810;2023-01-27T13:01:28;94013.28;;;6.22;74.33
55466;BME280;41329;41.594;23.810;2023-01-27T13:04:20;94012.56;;;5.95;75.13
55466;BME280;41329;41.594;23.810;2023-01-27T13:06:57;94013.00;;;5.97;75.58
55466;BME280;41329;41.594;23.810;2023-01-27T13:12:01;94013.25;;;6.18;75.55
55466;BME280;41329;41.594;23.810;2023-01-27T13:14:31;93999.44;;;6.15;75.29
55466;BME280;41329;41.594;23.810;2023-01-27T13:16:59;93987.69;;;6.14;75.22
55466;BME280;41329;41.594;23.810;2023-01-27T13:19:54;94002.84;;;6.38;75.39
55466;BME280;41329;41.594;23.810;2023-01-27T13:22:22;93997.34;;;6.38;75.04
55466;BME280;41329;41.594;23.810;2023-01-27T13:24:55;94004.88;;;6.44;74.85
55466;BME280;41329;41.594;23.810;2023-01-27T13:27:23;94006.50;;;6.49;74.17
55466;BME280;41329;41.594;23.810;2023-01-27T13:30:02;93996.19;;;6.39;73.87
55466;BME280;41329;41.594;23.810;2023-01-27T13:32:32;94006.81;;;6.44;74.01
55466;BME280;41329;41.594;23.810;2023-01-27T13:38:13;94006.34;;;6.35;74.41
55466;BME280;41329;41.594;23.810;2023-01-27T13:40:45;94016.63;;;6.41;74.62
55466;BME280;41329;41.594;23.810;2023-01-27T13:43:21;94015.50;;;6.46;74.52
55466;BME280;41329;41.594;23.810;2023-01-27T13:46:01;93993.03;;;6.37;74.81
55466;BME280;41329;41.594;23.810;2023-01-27T13:48:33;94011.19;;;6.48;74.63
55466;BME280;41329;41.594;23.810;2023-01-27T13:51:06;94028.53;;;6.56;74.74
55466;BME280;41329;41.594;23.810;2023-01-27T13:53:33;94000.09;;;6.34;74.72
55466;BME280;41329;41.594;23.810;2023-01-27T13:58:59;94021.38;;;6.44;74.54
55466;BME280;41329;41.594;23.810;2023-01-27T14:12:29;94047.66;;;6.45;74.84
55466;BME280;41329;41.594;23.810;2023-01-27T14:17:56;94045.03;;;6.19;75.47
55466;BME280;41329;41.594;23.810;2023-01-27T14:23:28;94039.94;;;6.21;75.83
55466;BME280;41329;41.594;23.810;2023-01-27T14:31:05;94046.09;;;6.11;76.51
55466;BME280;41329;41.594;23.810;2023-01-27T14:36:56;94046.09;;;6.11;76.19
55466;BME280;41329;41.594;23.810;2023-01-27T14:39:53;94059.22;;;6.25;76.14
55466;BME280;41329;41.594;23.810;2023-01-27T14:42:53;94054.94;;;6.31;75.98
55466;BME280;41329;41.594;23.810;2023-01-27T14:45:33;94059.72;;;6.37;76.22
55466;BME280;41329;41.594;23.810;2023-01-27T14:48:22;94059.00;;;6.40;76.02